Time;durP1;ratioP1;P1;durP2;ratioP2;P2;SDS_P1;SDS_P2;PMS_P1;PMS_P2;Temp;Humidity;BMP_temperature;BMP_pressure;BME280_temperature;BME280_humidity;BME280_pressure;Samples;Min_cycle;Max_cycle;Signal;HPM_P1;HPM_P2
2022/09/22 09:09:58;;;;;;;1.08;0.88;;;20.70;98.50;;;;;;6211481;22;20208;-72
2022/09/22 09:12:39;;;;;;;1.10;0.60;;;20.70;98.90;;;;;;6215480;23;20176;-71
2022/09/22 09:15:28;;;;;;;1.58;0.70;;;20.70;99.10;;;;;;6216273;23;20183;-72
2022/09/22 09:17:59;;;;;;;1.42;0.73;;;20.30;99.60;;;;;;6185816;23;20227;-71
2022/09/22 09:20:37;;;;;;;3.03;0.88;;;19.90;99.90;;;;;;6186467;23;20177;-72
2022/09/22 09:23:10;;;;;;;4.45;0.88;;;19.80;99.90;;;;;;6186541;23;20183;-72
2022/09/22 09:25:41;;;;;;;1.95;0.95;;;19.50;99.90;;;;;;6185978;23;20181;-72
2022/09/22 09:28:14;;;;;;;1.80;0.80;;;18.80;99.90;;;;;;6186406;23;20177;-72
2022/09/22 09:30:45;;;;;;;1.60;0.82;;;18.30;99.90;;;;;;6185923;23;20212;-72
2022/09/22 09:33:22;;;;;;;0.90;0.70;;;18.10;99.90;;;;;;6186636;23;20195;-72
2022/09/22 09:35:52;;;;;;;2.95;0.80;;;18.20;99.90;;;;;;6186463;23;20260;-71
2022/09/22 09:38:22;;;;;;;2.35;0.80;;;18.30;99.90;;;;;;6180298;23;20196;-70
2022/09/22 09:40:56;;;;;;;1.20;0.70;;;18.20;99.90;;;;;;6184057;23;20185;-70
2022/09/22 09:43:24;;;;;;;3.90;0.80;;;18.20;99.90;;;;;;6184351;23;20196;-71
2022/09/22 09:46:03;;;;;;;1.45;0.65;;;18.30;99.90;;;;;;6183622;23;20205;-67
2022/09/22 09:48:37;;;;;;;1.70;0.80;;;18.00;99.90;;;;;;6184555;23;20204;-67
2022/09/22 09:51:05;;;;;;;1.27;0.70;;;18.20;99.90;;;;;;6186439;23;20205;-66
2022/09/22 09:53:34;;;;;;;1.33;0.70;;;18.10;99.90;;;;;;6185869;23;20253;-67
2022/09/22 09:56:02;;;;;;;1.20;0.70;;;18.10;99.90;;;;;;6185978;23;20197;-67
2022/09/22 10:01:14;;;;;;;3.40;0.80;;;18.30;99.90;;;;;;6185922;23;20224;-67
2022/09/22 10:03:47;;;;;;;1.25;0.60;;;18.40;99.90;;;;;;6186069;23;20501;-67
2022/09/22 10:06:15;;;;;;;0.90;0.68;;;18.50;99.90;;;;;;6185994;23;20201;-67
2022/09/22 10:08:44;;;;;;;0.77;0.50;;;18.60;99.90;;;;;;6185945;23;20177;-67
2022/09/22 10:11:13;;;;;;;2.05;0.88;;;18.60;99.90;;;;;;6185651;23;20217;-67
2022/09/22 10:13:41;;;;;;;2.60;1.17;;;18.60;99.90;;;;;;6185981;23;20212;-67
2022/09/22 10:16:21;;;;;;;1.67;0.70;;;18.70;99.90;;;;;;6185561;23;20682;-67
2022/09/22 10:18:49;;;;;;;1.23;0.70;;;18.80;99.90;;;;;;6185760;23;20184;-67
2022/09/22 10:21:18;;;;;;;1.67;0.80;;;18.80;99.90;;;;;;6186091;23;20181;-66
2022/09/22 10:23:46;;;;;;;0.57;0.43;;;18.80;99.90;;;;;;6185911;23;20190;-67
2022/09/22 10:26:21;;;;;;;0.95;0.80;;;18.80;99.90;;;;;;6185450;23;20197;-67
2022/09/22 10:29:07;;;;;;;0.90;0.50;;;18.90;99.90;;;;;;6185920;23;20235;-67
2022/09/22 10:31:37;;;;;;;0.80;0.60;;;18.90;99.90;;;;;;6185590;23;20215;-67
2022/09/22 10:34:05;;;;;;;1.60;0.60;;;19.00;99.90;;;;;;6185920;23;20185;-67
2022/09/22 10:36:35;;;;;;;0.80;0.60;;;19.10;99.90;;;;;;6185237;23;20693;-67
2022/09/22 10:39:10;;;;;;;0.95;0.60;;;19.20;99.90;;;;;;6185843;23;20183;-67
2022/09/22 10:41:40;;;;;;;0.88;0.52;;;19.20;99.90;;;;;;6185579;23;20180;-67
2022/09/22 10:44:15;;;;;;;2.45;0.50;;;19.10;99.90;;;;;;6186037;23;20269;-67
2022/09/22 10:46:57;;;;;;;2.40;0.70;;;19.20;99.90;;;;;;6185198;23;20197;-68
2022/09/22 10:49:40;;;;;;;1.10;0.45;;;19.30;99.90;;;;;;6185330;23;20644;-67
2022/09/22 10:52:16;;;;;;;1.80;0.60;;;19.20;99.90;;;;;;6185794;23;20204;-69
2022/09/22 10:55:06;;;;;;;0.80;0.50;;;19.30;99.90;;;;;;6184542;23;20195;-67
2022/09/22 10:58:05;;;;;;;7.10;0.80;;;19.20;99.10;;;;;;6183356;23;20201;-67
2022/09/22 11:00:34;;;;;;;1.05;0.68;;;19.20;99.90;;;;;;6181441;23;20196;-67
2022/09/22 11:03:33;;;;;;;1.08;0.60;;;19.30;99.70;;;;;;6183526;23;20656;-67
2022/09/22 11:15:20;;;;;;;1.52;0.57;;;19.50;97.90;;;;;;6184728;23;20183;-66
2022/09/22 11:18:21;;;;;;;1.15;0.55;;;19.40;98.30;;;;;;6064494;23;20191;-66
2022/09/22 11:20:57;;;;;;;1.92;0.60;;;19.20;97.50;;;;;;6134924;23;20185;-66
2022/09/22 11:23:46;;;;;;;1.67;0.57;;;19.30;98.10;;;;;;6184666;23;20189;-66
2022/09/22 11:26:35;;;;;;;3.38;1.05;;;19.30;96.90;;;;;;6184046;23;20197;-66
2022/09/22 11:29:37;;;;;;;0.85;0.45;;;19.20;97.70;;;;;;6183945;23;20260;-66
2022/09/22 11:32:16;;;;;;;0.95;0.50;;;19.10;96.70;;;;;;6183882;23;20266;-66
2022/09/22 11:34:59;;;;;;;0.60;0.45;;;18.90;97.10;;;;;;6184674;23;20228;-67
2022/09/22 11:37:41;;;;;;;0.90;0.50;;;18.70;96.50;;;;;;6184570;23;20197;-67
2022/09/22 11:40:32;;;;;;;0.65;0.40;;;18.80;97.10;;;;;;6184300;23;20181;-67
2022/09/22 11:43:18;;;;;;;0.77;0.45;;;18.90;98.00;;;;;;6184292;23;20180;-67
2022/09/22 11:45:52;;;;;;;0.50;0.40;;;19.00;98.90;;;;;;6184398;23;20207;-67
2022/09/22 11:48:37;;;;;;;0.73;0.45;;;19.10;97.60;;;;;;6184839;23;20176;-67
2022/09/22 11:51:16;;;;;;;0.90;0.47;;;19.10;95.60;;;;;;6184408;23;20258;-67
2022/09/22 11:54:10;;;;;;;0.70;0.40;;;19.20;96.70;;;;;;6184211;23;20210;-67
2022/09/22 11:56:42;;;;;;;0.60;0.40;;;19.20;96.10;;;;;;6174005;23;20197;-66
2022/09/22 11:59:23;;;;;;;0.50;0.40;;;19.30;95.70;;;;;;6184934;23;20199;-66
2022/09/22 12:01:52;;;;;;;1.70;0.60;;;19.10;96.50;;;;;;6183205;23;20475;-66
2022/09/22 12:04:27;;;;;;;1.50;0.50;;;19.10;96.00;;;;;;6183346;23;20184;-66
2022/09/22 12:06:57;;;;;;;1.00;0.60;;;19.00;95.60;;;;;;6183924;23;20197;-67
2022/09/22 12:09:34;;;;;;;1.10;0.60;;;19.10;94.60;;;;;;6184436;23;20642;-67
2022/09/22 12:12:02;;;;;;;1.00;0.40;;;19.30;94.20;;;;;;6186159;23;20212;-67
2022/09/22 12:14:31;;;;;;;0.57;0.43;;;19.20;95.20;;;;;;6187290;23;20200;-66
2022/09/22 12:17:03;;;;;;;1.23;0.40;;;19.10;94.60;;;;;;6187123;23;20248;-67
2022/09/22 12:19:44;;;;;;;0.40;0.30;;;19.00;94.90;;;;;;6183248;23;20227;-69
2022/09/22 12:22:19;;;;;;;0.70;0.40;;;19.00;94.90;;;;;;6187103;23;20193;-69
2022/09/22 12:24:46;;;;;;;0.50;0.40;;;19.10;95.80;;;;;;6187419;23;20185;-69
2022/09/22 12:27:21;;;;;;;1.85;0.40;;;19.20;95.40;;;;;;6181730;23;20280;-67
2022/09/22 12:29:55;;;;;;;0.40;0.40;;;19.20;95.80;;;;;;6186767;23;20235;-68
2022/09/22 12:32:24;;;;;;;0.60;0.30;;;19.30;95.30;;;;;;6186852;23;20288;-67
2022/09/22 12:34:56;;;;;;;1.02;0.40;;;19.20;94.00;;;;;;6186593;23;20728;-67
2022/09/22 12:37:28;;;;;;;0.50;0.40;;;18.80;93.60;;;;;;6186773;23;20197;-67
2022/09/22 12:39:56;;;;;;;0.60;0.40;;;18.90;93.60;;;;;;6186423;23;20530;-66
2022/09/22 12:42:29;;;;;;;0.30;0.30;;;19.00;93.60;;;;;;6187067;23;20195;-67
2022/09/22 12:44:58;;;;;;;2.35;0.40;;;18.90;94.30;;;;;;6186835;23;20183;-67
2022/09/22 12:47:32;;;;;;;0.95;0.30;;;19.00;94.20;;;;;;6186015;23;20673;-66
2022/09/22 12:50:03;;;;;;;1.55;0.40;;;18.90;94.20;;;;;;6186697;23;20184;-66
2022/09/22 12:53:04;;;;;;;0.52;0.40;;;19.00;94.80;;;;;;6187028;23;20728;-66
2022/09/22 12:55:37;;;;;;;0.52;0.40;;;18.90;94.50;;;;;;6186381;23;20181;-66
2022/09/22 12:58:20;;;;;;;0.65;0.30;;;18.90;93.80;;;;;;6187379;23;20239;-65
2022/09/22 13:00:47;;;;;;;0.57;0.40;;;18.90;94.30;;;;;;6185265;23;20189;-66
2022/09/22 13:03:46;;;;;;;0.95;0.40;;;18.90;94.00;;;;;;6186878;23;20177;-66
2022/09/22 13:06:53;;;;;;;0.50;0.40;;;18.80;93.90;;;;;;6186266;23;20205;-67
2022/09/22 13:09:24;;;;;;;1.58;0.40;;;18.70;93.80;;;;;;6185984;23;20181;-66
2022/09/22 13:12:26;;;;;;;0.40;0.30;;;18.70;93.00;;;;;;6185680;23;20229;-67
2022/09/22 13:15:19;;;;;;;1.75;0.30;;;18.80;91.90;;;;;;6186551;23;20188;-67
2022/09/22 13:17:48;;;;;;;1.42;0.50;;;19.10;93.30;;;;;;6170709;23;20699;-66
2022/09/22 13:20:17;;;;;;;0.40;0.22;;;19.20;94.10;;;;;;6186849;23;20215;-66
2022/09/22 13:22:45;;;;;;;0.63;0.40;;;19.30;94.00;;;;;;6186441;23;20261;-66
2022/09/22 13:25:21;;;;;;;3.00;0.68;;;19.10;93.20;;;;;;6186404;23;20177;-67
2022/09/22 13:27:50;;;;;;;0.60;0.47;;;19.00;93.30;;;;;;6186533;23;20187;-67
2022/09/22 13:30:16;;;;;;;0.90;0.40;;;19.00;94.20;;;;;;6186674;23;20292;-66
2022/09/22 13:32:50;;;;;;;1.48;0.40;;;19.00;93.70;;;;;;6186464;23;20260;-66
2022/09/22 13:35:25;;;;;;;0.65;0.40;;;19.10;94.10;;;;;;6186567;23;20177;-67
2022/09/22 13:37:55;;;;;;;2.00;0.40;;;19.20;93.60;;;;;;6186611;23;20185;-66
2022/09/22 13:40:25;;;;;;;0.73;0.30;;;19.20;93.80;;;;;;6186577;23;20184;-66
2022/09/22 13:42:54;;;;;;;0.30;0.28;;;19.30;94.20;;;;;;6186331;23;20177;-67
2022/09/22 13:45:25;;;;;;;0.88;0.40;;;19.10;93.40;;;;;;6186426;23;20201;-67
2022/09/22 13:47:55;;;;;;;0.43;0.30;;;18.90;92.60;;;;;;6186528;23;20185;-67
2022/09/22 13:50:22;;;;;;;0.60;0.38;;;18.80;92.70;;;;;;6186381;23;20185;-67
2022/09/22 13:52:50;;;;;;;0.47;0.40;;;19.00;93.60;;;;;;6186079;23;20209;-68
2022/09/22 13:55:32;;;;;;;1.50;0.40;;;19.10;93.30;;;;;;6183027;23;20606;-68
2022/09/22 13:58:01;;;;;;;0.75;0.45;;;19.30;94.10;;;;;;6184868;23;20219;-68
2022/09/22 14:00:32;;;;;;;0.70;0.30;;;19.50;94.40;;;;;;6182520;23;20449;-69
2022/09/22 14:03:02;;;;;;;0.57;0.47;;;19.60;93.90;;;;;;6184382;23;20185;-69
2022/09/22 14:05:31;;;;;;;1.65;0.35;;;19.60;94.50;;;;;;6185968;23;20188;-69
2022/09/22 14:08:01;;;;;;;0.98;0.40;;;19.70;93.80;;;;;;6185947;23;20177;-68
2022/09/22 14:10:30;;;;;;;0.88;0.40;;;19.70;94.00;;;;;;6185144;23;20502;-69
2022/09/22 14:12:56;;;;;;;0.50;0.43;;;19.80;93.00;;;;;;6184752;23;20218;-70
2022/09/22 14:15:39;;;;;;;0.38;0.35;;;19.80;94.00;;;;;;6185894;23;20185;-69
2022/09/22 14:18:11;;;;;;;1.55;0.45;;;19.80;93.60;;;;;;6185888;23;20177;-70
2022/09/22 14:20:39;;;;;;;0.30;0.30;;;19.90;93.20;;;;;;6184719;23;20177;-70
2022/09/22 14:23:15;;;;;;;0.55;0.38;;;19.90;93.20;;;;;;6185283;23;20185;-71
2022/09/22 14:25:44;;;;;;;0.30;0.30;;;20.00;92.20;;;;;;6185266;23;20205;-72
2022/09/22 14:28:19;;;;;;;1.23;0.40;;;20.00;92.40;;;;;;6185323;23;20612;-71
2022/09/22 14:30:46;;;;;;;0.57;0.35;;;20.00;92.50;;;;;;6184971;23;20180;-70
2022/09/22 14:33:19;;;;;;;1.95;0.40;;;19.90;91.70;;;;;;6185246;23;20181;-70
2022/09/22 14:35:48;;;;;;;0.50;0.30;;;19.70;91.30;;;;;;6184987;23;20255;-70
2022/09/22 14:38:18;;;;;;;0.57;0.40;;;19.60;91.80;;;;;;6185323;23;20184;-70
2022/09/22 14:40:53;;;;;;;0.32;0.30;;;19.40;91.80;;;;;;6185064;23;20177;-71
2022/09/22 14:43:24;;;;;;;0.60;0.30;;;19.30;91.20;;;;;;6185724;23;20180;-72
2022/09/22 14:45:58;;;;;;;0.50;0.47;;;19.40;93.30;;;;;;6185606;23;20203;-71
2022/09/22 14:48:30;;;;;;;0.45;0.30;;;19.50;93.40;;;;;;6185046;23;20651;-72
2022/09/22 14:51:01;;;;;;;0.70;0.32;;;19.60;92.80;;;;;;6185174;23;20188;-70
2022/09/22 14:53:31;;;;;;;0.77;0.40;;;19.60;93.20;;;;;;6185063;23;20181;-71
2022/09/22 14:56:04;;;;;;;0.40;0.30;;;19.60;91.50;;;;;;6185412;23;20228;-70
2022/09/22 14:58:36;;;;;;;0.55;0.40;;;19.60;93.00;;;;;;6185270;23;20177;-70
2022/09/22 15:04:00;;;;;;;0.82;0.30;;;19.50;91.60;;;;;;6147021;23;20177;-69
2022/09/22 15:06:33;;;;;;;0.50;0.40;;;19.40;91.70;;;;;;6185601;23;20823;-69
2022/09/22 15:09:03;;;;;;;1.05;0.40;;;19.30;90.50;;;;;;6185071;23;20181;-69
2022/09/22 15:11:48;;;;;;;0.90;0.47;;;19.20;91.80;;;;;;6184135;23;20211;-69
2022/09/22 15:14:31;;;;;;;0.90;0.40;;;19.20;92.40;;;;;;6182213;23;20192;-68
2022/09/22 15:18:12;;;;;;;2.63;1.05;;;19.20;92.00;;;;;;6185206;23;20201;-68
2022/09/22 15:19:49;;;;;;;1.85;0.70;;;19.20;92.80;;;;;;6185155;23;20181;-69
2022/09/22 15:22:16;;;;;;;0.55;0.30;;;19.10;93.90;;;;;;6185204;23;20260;-68
2022/09/22 15:24:43;;;;;;;0.43;0.30;;;19.10;94.50;;;;;;6184942;23;20265;-68
2022/09/22 15:27:16;;;;;;;0.50;0.40;;;19.10;93.10;;;;;;6184640;23;20204;-68
2022/09/22 15:29:44;;;;;;;0.50;0.30;;;18.90;92.00;;;;;;6185446;23;20280;-68
2022/09/22 15:32:11;;;;;;;0.55;0.50;;;18.80;91.80;;;;;;6185117;23;20511;-68
2022/09/22 15:34:40;;;;;;;1.60;0.30;;;18.80;91.50;;;;;;6184736;23;20177;-68
2022/09/22 15:37:13;;;;;;;0.80;0.38;;;18.90;93.30;;;;;;6184944;23;20205;-68
2022/09/22 15:39:39;;;;;;;0.55;0.40;;;18.90;93.00;;;;;;6185247;23;20212;-68
2022/09/22 15:42:06;;;;;;;1.02;0.43;;;19.00;94.10;;;;;;6184921;23;20177;-68
2022/09/22 15:44:34;;;;;;;0.60;0.40;;;19.00;94.10;;;;;;6184752;23;20181;-68
2022/09/22 15:47:01;;;;;;;0.70;0.50;;;19.00;94.90;;;;;;6184747;23;20197;-69
2022/09/22 15:49:30;;;;;;;1.55;0.40;;;19.10;95.00;;;;;;6184727;23;20220;-68
2022/09/22 15:51:57;;;;;;;0.50;0.40;;;19.10;95.90;;;;;;6158987;23;20209;-68
2022/09/22 15:54:25;;;;;;;1.10;0.65;;;19.00;94.90;;;;;;6184448;23;20177;-69
2022/09/22 15:56:54;;;;;;;0.70;0.50;;;18.80;94.50;;;;;;6184686;23;20280;-68
2022/09/22 15:59:26;;;;;;;1.63;0.55;;;18.80;94.00;;;;;;6184958;23;20216;-68
2022/09/22 16:01:55;;;;;;;0.52;0.30;;;18.70;93.60;;;;;;6184171;23;20638;-68
2022/09/22 16:04:23;;;;;;;1.25;0.43;;;18.70;95.60;;;;;;6184688;23;20177;-68
2022/09/22 16:06:54;;;;;;;0.80;0.40;;;18.70;94.00;;;;;;6184578;23;20201;-69
2022/09/22 16:09:21;;;;;;;0.95;0.40;;;18.60;94.10;;;;;;6184555;23;20188;-68
2022/09/22 16:11:48;;;;;;;1.73;0.57;;;18.60;93.80;;;;;;6184187;23;20657;-68
2022/09/22 16:14:14;;;;;;;0.65;0.32;;;18.60;95.30;;;;;;6184740;23;20185;-68
2022/09/22 16:16:42;;;;;;;0.35;0.30;;;18.60;95.60;;;;;;6184815;23;20204;-69
2022/09/22 16:19:10;;;;;;;1.90;0.40;;;18.60;96.80;;;;;;6184616;23;20696;-68
2022/09/22 16:21:39;;;;;;;0.40;0.40;;;18.60;97.70;;;;;;6184413;23;20187;-68
2022/09/22 16:24:08;;;;;;;0.90;0.40;;;18.60;98.20;;;;;;6184551;23;20194;-69
2022/09/22 16:26:36;;;;;;;1.08;0.40;;;18.50;97.90;;;;;;6184673;23;20204;-70
2022/09/22 16:29:04;;;;;;;0.47;0.37;;;18.30;99.50;;;;;;6184916;23;20181;-71
2022/09/22 16:31:31;;;;;;;0.52;0.40;;;18.30;99.90;;;;;;6184655;23;20177;-69
2022/09/22 16:34:00;;;;;;;2.35;0.50;;;18.10;99.90;;;;;;6184918;23;20177;-72
2022/09/22 16:36:30;;;;;;;0.43;0.40;;;18.10;99.90;;;;;;6184375;23;20284;-70
2022/09/22 16:38:57;;;;;;;0.70;0.43;;;18.00;99.90;;;;;;6183384;23;20630;-69
2022/09/22 16:41:25;;;;;;;0.70;0.30;;;17.90;99.90;;;;;;6183583;23;20177;-70
